sensor_id;sensor_type;location;lat;lon;timestamp;pressure;altitude;pressure_sealevel;temperature;humidity
11053;BME280;55230;42.602;23.470;2022-10-24T00:02:06;94176.56;;;11.23;95.81
11053;BME280;55230;42.602;23.470;2022-10-24T00:04:35;94217.19;;;11.45;95.93
11053;BME280;55230;42.602;23.470;2022-10-24T00:07:04;94029.03;;;10.23;95.98
11053;BME280;55230;42.602;23.470;2022-10-24T00:09:31;94227.75;;;11.52;96.23
11053;BME280;55230;42.602;23.470;2022-10-24T00:11:58;94174.88;;;11.17;96.18
11053;BME280;55230;42.602;23.470;2022-10-24T00:14:25;94196.47;;;11.29;97.01
11053;BME280;55230;42.602;23.470;2022-10-24T00:16:52;94221.69;;;11.48;97.28
11053;BME280;55230;42.602;23.470;2022-10-24T00:19:19;94222.03;;;11.37;97.87
11053;BME280;55230;42.602;23.470;2022-10-24T00:21:46;94160.84;;;10.97;98.19
11053;BME280;55230;42.602;23.470;2022-10-24T00:24:15;94223.78;;;11.31;98.30
11053;BME280;55230;42.602;23.470;2022-10-24T00:26:42;94183.84;;;11.01;98.30
11053;BME280;55230;42.602;23.470;2022-10-24T00:29:09;94180.50;;;10.97;98.75
11053;BME280;55230;42.602;23.470;2022-10-24T00:31:36;94230.78;;;11.29;98.80
11053;BME280;55230;42.602;23.470;2022-10-24T00:34:03;94164.31;;;10.85;99.69
11053;BME280;55230;42.602;23.470;2022-10-24T00:36:30;94223.22;;;11.24;99.46
11053;BME280;55230;42.602;23.470;2022-10-24T00:38:57;94225.38;;;11.29;100.00
11053;BME280;55230;42.602;23.470;2022-10-24T00:41:27;94171.22;;;10.98;100.00
11053;BME280;55230;42.602;23.470;2022-10-24T00:44:19;94211.81;;;11.20;100.00
11053;BME280;55230;42.602;23.470;2022-10-24T00:46:49;94207.47;;;11.22;100.00
11053;BME280;55230;42.602;23.470;2022-10-24T00:49:20;94070.06;;;10.02;100.00
11053;BME280;55230;42.602;23.470;2022-10-24T00:51:52;94210.91;;;10.98;100.00
11053;BME280;55230;42.602;23.470;2022-10-24T00:54:19;94126.19;;;10.45;100.00
11053;BME280;55230;42.602;23.470;2022-10-24T00:56:55;94172.19;;;10.79;100.00
11053;BME280;55230;42.602;23.470;2022-10-24T00:59:25;94183.53;;;10.87;100.00
11053;BME280;55230;42.602;23.470;2022-10-24T01:01:52;94208.13;;;10.89;100.00
11053;BME280;55230;42.602;23.470;2022-10-24T01:04:19;94202.63;;;10.92;100.00
11053;BME280;55230;42.602;23.470;2022-10-24T01:06:55;94170.84;;;10.46;100.00
11053;BME280;55230;42.602;23.470;2022-10-24T01:09:38;94048.44;;;9.77;100.00
11053;BME280;55230;42.602;23.470;2022-10-24T01:12:20;94214.03;;;10.71;100.00
11053;BME280;55230;42.602;23.470;2022-10-24T01:14:56;94172.78;;;10.33;100.00
11053;BME280;55230;42.602;23.470;2022-10-24T01:17:33;94251.72;;;10.75;100.00
11053;BME280;55230;42.602;23.470;2022-10-24T01:20:41;94216.63;;;10.75;100.00
11053;BME280;55230;42.602;23.470;2022-10-24T01:23:36;94218.22;;;10.60;100.00
11053;BME280;55230;42.602;23.470;2022-10-24T01:26:25;94147.50;;;10.14;100.00
11053;BME280;55230;42.602;23.470;2022-10-24T01:29:04;94219.97;;;10.66;100.00
11053;BME280;55230;42.602;23.470;2022-10-24T01:31:39;94009.38;;;9.15;100.00
11053;BME280;55230;42.602;23.470;2022-10-24T01:34:15;94149.34;;;10.17;100.00
11053;BME280;55230;42.602;23.470;2022-10-24T01:36:48;94209.81;;;10.58;100.00
11053;BME280;55230;42.602;23.470;2022-10-24T01:39:17;94208.38;;;10.53;100.00
11053;BME280;55230;42.602;23.470;2022-10-24T01:41:46;94004.09;;;9.12;100.00
11053;BME280;55230;42.602;23.470;2022-10-24T01:44:17;94207.00;;;10.48;100.00
11053;BME280;55230;42.602;23.470;2022-10-24T01:46:52;94210.13;;;10.47;100.00
11053;BME280;55230;42.602;23.470;2022-10-24T01:49:23;94229.19;;;10.40;100.00
11053;BME280;55230;42.602;23.470;2022-10-24T01:51:53;94198.97;;;10.32;100.00
11053;BME280;55230;42.602;23.470;2022-10-24T01:54:22;94159.53;;;9.81;100.00
11053;BME280;55230;42.602;23.470;2022-10-24T01:56:50;94178.47;;;10.06;100.00
11053;BME280;55230;42.602;23.470;2022-10-24T01:59:39;94196.41;;;10.41;100.00
11053;BME280;55230;42.602;23.470;2022-10-24T02:02:11;94229.41;;;10.45;100.00
11053;BME280;55230;42.602;23.470;2022-10-24T02:04:43;94109.84;;;9.70;100.00
11053;BME280;55230;42.602;23.470;2022-10-24T02:07:12;94196.06;;;10.39;100.00
11053;BME280;55230;42.602;23.470;2022-10-24T02:09:42;94194.13;;;10.40;100.00
11053;BME280;55230;42.602;23.470;2022-10-24T02:12:13;94211.06;;;10.40;100.00
11053;BME280;55230;42.602;23.470;2022-10-24T02:14:44;94201.78;;;10.41;100.00
11053;BME280;55230;42.602;23.470;2022-10-24T02:17:14;94194.91;;;10.40;100.00
11053;BME280;55230;42.602;23.470;2022-10-24T02:19:41;94205.13;;;10.33;100.00
11053;BME280;55230;42.602;23.470;2022-10-24T02:22:16;94114.28;;;9.76;100.00
11053;BME280;55230;42.602;23.470;2022-10-24T02:24:48;93966.53;;;8.64;100.00
11053;BME280;55230;42.602;23.470;2022-10-24T02:27:21;94208.03;;;10.38;100.00
11053;BME280;55230;42.602;23.470;2022-10-24T02:29:53;94201.22;;;10.34;100.00
11053;BME280;55230;42.602;23.470;2022-10-24T02:32:26;94203.22;;;10.17;100.00
11053;BME280;55230;42.602;23.470;2022-10-24T02:34:55;94213.16;;;10.20;100.00
11053;BME280;55230;42.602;23.470;2022-10-24T02:37:24;94163.78;;;9.66;100.00
11053;BME280;55230;42.602;23.470;2022-10-24T02:39:54;94207.78;;;10.04;100.00
11053;BME280;55230;42.602;23.470;2022-10-24T02:42:23;94097.53;;;9.40;100.00
11053;BME280;55230;42.602;23.470;2022-10-24T02:44:52;94244.78;;;9.88;100.00
11053;BME280;55230;42.602;23.470;2022-10-24T02:47:20;94199.56;;;9.95;100.00
11053;BME280;55230;42.602;23.470;2022-10-24T02:49:50;94204.31;;;9.75;100.00
11053;BME280;55230;42.602;23.470;2022-10-24T02:52:17;94187.69;;;9.93;100.00
11053;BME280;55230;42.602;23.470;2022-10-24T02:54:44;94144.72;;;9.45;100.00
11053;BME280;55230;42.602;23.470;2022-10-24T02:57:11;94182.72;;;9.91;100.00
11053;BME280;55230;42.602;23.470;2022-10-24T02:59:39;94202.34;;;9.92;100.00
11053;BME280;55230;42.602;23.470;2022-10-24T03:02:06;93962.66;;;8.16;100.00
11053;BME280;55230;42.602;23.470;2022-10-24T03:04:33;94130.31;;;9.51;100.00
11053;BME280;55230;42.602;23.470;2022-10-24T03:07:01;93931.63;;;8.15;100.00
11053;BME280;55230;42.602;23.470;2022-10-24T03:09:28;94184.81;;;9.71;100.00
11053;BME280;55230;42.602;23.470;2022-10-24T03:11:54;94060.59;;;9.12;100.00
11053;BME280;55230;42.602;23.470;2022-10-24T03:14:21;94103.28;;;9.26;100.00
11053;BME280;55230;42.602;23.470;2022-10-24T03:16:48;94190.38;;;10.09;100.00
11053;BME280;55230;42.602;23.470;2022-10-24T03:19:15;94191.59;;;10.04;100.00
11053;BME280;55230;42.602;23.470;2022-10-24T03:21:41;94199.53;;;10.11;100.00
11053;BME280;55230;42.602;23.470;2022-10-24T03:24:09;94194.22;;;10.08;100.00
11053;BME280;55230;42.602;23.470;2022-10-24T03:26:36;94193.56;;;10.04;100.00
11053;BME280;55230;42.602;23.470;2022-10-24T03:29:03;94196.25;;;10.04;100.00
11053;BME280;55230;42.602;23.470;2022-10-24T03:31:30;94180.22;;;9.84;100.00
11053;BME280;55230;42.602;23.470;2022-10-24T03:33:57;94239.13;;;9.98;100.00
11053;BME280;55230;42.602;23.470;2022-10-24T03:36:24;94098.06;;;9.19;100.00
11053;BME280;55230;42.602;23.470;2022-10-24T03:38:51;94190.81;;;9.91;100.00
11053;BME280;55230;42.602;23.470;2022-10-24T03:41:19;94191.34;;;9.86;100.00
11053;BME280;55230;42.602;23.470;2022-10-24T03:43:46;93476.22;;;4.95;100.00
11053;BME280;55230;42.602;23.470;2022-10-24T03:46:13;94191.38;;;9.70;100.00
11053;BME280;55230;42.602;23.470;2022-10-24T03:48:39;93687.16;;;6.30;100.00
11053;BME280;55230;42.602;23.470;2022-10-24T03:51:06;94202.13;;;9.70;100.00
11053;BME280;55230;42.602;23.470;2022-10-24T03:53:33;94145.91;;;9.27;100.00
11053;BME280;55230;42.602;23.470;2022-10-24T03:56:00;94194.56;;;9.65;100.00
11053;BME280;55230;42.602;23.470;2022-10-24T03:58:28;94206.00;;;9.69;100.00
11053;BME280;55230;42.602;23.470;2022-10-24T04:00:55;94201.31;;;9.73;100.00
11053;BME280;55230;42.602;23.470;2022-10-24T04:03:23;94200.28;;;9.67;100.00
11053;BME280;55230;42.602;23.470;2022-10-24T04:05:50;94175.44;;;9.31;100.00
11053;BME280;55230;42.602;23.470;2022-10-24T04:08:17;94128.09;;;9.17;100.00
11053;BME280;55230;42.602;23.470;2022-10-24T04:10:44;94210.03;;;9.61;100.00
11053;BME280;55230;42.602;23.470;2022-10-24T04:13:11;94188.50;;;9.61;100.00
11053;BME280;55230;42.602;23.470;2022-10-24T04:15:39;94162.66;;;9.19;100.00
11053;BME280;55230;42.602;23.470;2022-10-24T04:18:06;94188.94;;;9.60;100.00
11053;BME280;55230;42.602;23.470;2022-10-24T04:20:34;94181.72;;;9.57;100.00
11053;BME280;55230;42.602;23.470;2022-10-24T04:23:00;94175.56;;;9.56;100.00
11053;BME280;55230;42.602;23.470;2022-10-24T04:25:27;94151.38;;;9.40;100.00
11053;BME280;55230;42.602;23.470;2022-10-24T04:27:54;94113.72;;;9.08;100.00
11053;BME280;55230;42.602;23.470;2022-10-24T04:30:21;94177.00;;;9.61;100.00
11053;BME280;55230;42.602;23.470;2022-10-24T04:32:49;94182.31;;;9.48;100.00
11053;BME280;55230;42.602;23.470;2022-10-24T04:35:16;94191.50;;;9.51;100.00
11053;BME280;55230;42.602;23.470;2022-10-24T04:37:42;94190.63;;;9.54;100.00
11053;BME280;55230;42.602;23.470;2022-10-24T04:40:10;94186.03;;;9.54;100.00
11053;BME280;55230;42.602;23.470;2022-10-24T04:42:37;94154.56;;;9.03;100.00
11053;BME280;55230;42.602;23.470;2022-10-24T04:45:05;94194.00;;;9.42;100.00
11053;BME280;55230;42.602;23.470;2022-10-24T04:47:33;94150.56;;;9.11;100.00
11053;BME280;55230;42.602;23.470;2022-10-24T04:50:01;94187.69;;;9.48;100.00
11053;BME280;55230;42.602;23.470;2022-10-24T04:52:27;94207.88;;;9.56;100.00
11053;BME280;55230;42.602;23.470;2022-10-24T04:54:54;94152.06;;;9.28;100.00
11053;BME280;55230;42.602;23.470;2022-10-24T04:57:21;94201.16;;;9.64;100.00
11053;BME280;55230;42.602;23.470;2022-10-24T04:59:48;94306.16;;;9.64;100.00
11053;BME280;55230;42.602;23.470;2022-10-24T05:02:15;94215.34;;;9.65;100.00
11053;BME280;55230;42.602;23.470;2022-10-24T05:04:41;94208.38;;;9.67;100.00
11053;BME280;55230;42.602;23.470;2022-10-24T05:07:09;94188.94;;;9.60;100.00
11053;BME280;55230;42.602;23.470;2022-10-24T05:09:36;94213.41;;;9.81;100.00
11053;BME280;55230;42.602;23.470;2022-10-24T05:12:03;93807.69;;;7.21;100.00
11053;BME280;55230;42.602;23.470;2022-10-24T05:14:30;94200.41;;;9.92;100.00
11053;BME280;55230;42.602;23.470;2022-10-24T05:16:57;94207.13;;;10.00;100.00
11053;BME280;55230;42.602;23.470;2022-10-24T05:19:24;94209.72;;;10.04;100.00
11053;BME280;55230;42.602;23.470;2022-10-24T05:21:51;94210.97;;;10.15;100.00
11053;BME280;55230;42.602;23.470;2022-10-24T05:24:19;94092.97;;;9.37;100.00
11053;BME280;55230;42.602;23.470;2022-10-24T05:26:46;94215.69;;;10.40;100.00
11053;BME280;55230;42.602;23.470;2022-10-24T05:29:13;93866.72;;;8.01;100.00
11053;BME280;55230;42.602;23.470;2022-10-24T05:31:39;94230.66;;;10.70;100.00
11053;BME280;55230;42.602;23.470;2022-10-24T05:34:06;94225.06;;;10.89;100.00
11053;BME280;55230;42.602;23.470;2022-10-24T05:36:33;94227.56;;;11.09;100.00
11053;BME280;55230;42.602;23.470;2022-10-24T05:39:00;94208.75;;;10.93;100.00
11053;BME280;55230;42.602;23.470;2022-10-24T05:41:28;94198.81;;;11.27;100.00
11053;BME280;55230;42.602;23.470;2022-10-24T05:43:55;93881.44;;;9.27;100.00
11053;BME280;55230;42.602;23.470;2022-10-24T05:46:21;94222.53;;;11.83;99.91
11053;BME280;55230;42.602;23.470;2022-10-24T05:48:48;93808.88;;;9.23;98.60
11053;BME280;55230;42.602;23.470;2022-10-24T05:51:15;94256.59;;;11.80;97.60
11053;BME280;55230;42.602;23.470;2022-10-24T05:53:42;94223.16;;;11.99;97.48
11053;BME280;55230;42.602;23.470;2022-10-24T05:56:09;94148.22;;;11.53;96.68
11053;BME280;55230;42.602;23.470;2022-10-24T05:58:37;94168.53;;;11.57;95.87
11053;BME280;55230;42.602;23.470;2022-10-24T06:01:04;94231.84;;;12.37;93.40
11053;BME280;55230;42.602;23.470;2022-10-24T06:03:31;94239.28;;;12.67;92.90
11053;BME280;55230;42.602;23.470;2022-10-24T06:06:02;94240.25;;;12.82;92.80
11053;BME280;55230;42.602;23.470;2022-10-24T06:08:29;94256.97;;;13.03;90.80
11053;BME280;55230;42.602;23.470;2022-10-24T06:10:56;94202.53;;;12.36;89.45
11053;BME280;55230;42.602;23.470;2022-10-24T06:13:23;94254.75;;;12.45;90.93
11053;BME280;55230;42.602;23.470;2022-10-24T06:15:51;94171.13;;;11.61;92.28
11053;BME280;55230;42.602;23.470;2022-10-24T06:18:18;94265.50;;;12.02;94.00
11053;BME280;55230;42.602;23.470;2022-10-24T06:20:45;94008.75;;;10.31;94.89
11053;BME280;55230;42.602;23.470;2022-10-24T06:23:11;94110.84;;;11.17;94.26
11053;BME280;55230;42.602;23.470;2022-10-24T06:25:39;94255.59;;;11.99;94.89
11053;BME280;55230;42.602;23.470;2022-10-24T06:28:06;94250.31;;;12.17;94.88
11053;BME280;55230;42.602;23.470;2022-10-24T06:30:33;94245.38;;;12.37;93.60
11053;BME280;55230;42.602;23.470;2022-10-24T06:33:01;94243.34;;;12.07;94.60
11053;BME280;55230;42.602;23.470;2022-10-24T06:35:28;94180.84;;;11.71;94.42
11053;BME280;55230;42.602;23.470;2022-10-24T06:37:54;94217.41;;;11.97;94.17
11053;BME280;55230;42.602;23.470;2022-10-24T06:40:21;93525.31;;;7.49;93.04
11053;BME280;55230;42.602;23.470;2022-10-24T06:42:48;93823.09;;;9.24;93.25
11053;BME280;55230;42.602;23.470;2022-10-24T06:45:15;94206.03;;;11.55;95.52
11053;BME280;55230;42.602;23.470;2022-10-24T06:47:42;94271.81;;;11.99;95.83
11053;BME280;55230;42.602;23.470;2022-10-24T06:50:10;94261.22;;;11.92;96.08
11053;BME280;55230;42.602;23.470;2022-10-24T06:52:37;94288.16;;;12.30;93.13
11053;BME280;55230;42.602;23.470;2022-10-24T06:55:05;94298.28;;;12.38;93.66
11053;BME280;55230;42.602;23.470;2022-10-24T06:57:31;94234.00;;;12.08;92.80
11053;BME280;55230;42.602;23.470;2022-10-24T06:59:58;94116.91;;;11.68;91.57
11053;BME280;55230;42.602;23.470;2022-10-24T07:02:25;94281.19;;;12.85;90.60
11053;BME280;55230;42.602;23.470;2022-10-24T07:04:52;94299.28;;;13.40;86.40
11053;BME280;55230;42.602;23.470;2022-10-24T07:07:20;94294.13;;;13.33;85.92
11053;BME280;55230;42.602;23.470;2022-10-24T07:09:51;94293.75;;;13.52;85.83
11053;BME280;55230;42.602;23.470;2022-10-24T07:12:18;94026.75;;;11.62;84.74
11053;BME280;55230;42.602;23.470;2022-10-24T07:14:45;94275.31;;;13.78;82.90
11053;BME280;55230;42.602;23.470;2022-10-24T07:17:12;94290.22;;;14.31;81.76
11053;BME280;55230;42.602;23.470;2022-10-24T07:19:39;94267.97;;;13.87;80.82
11053;BME280;55230;42.602;23.470;2022-10-24T07:22:06;94289.47;;;14.31;80.56
11053;BME280;55230;42.602;23.470;2022-10-24T07:24:35;94291.75;;;14.32;80.61
11053;BME280;55230;42.602;23.470;2022-10-24T07:27:02;94310.88;;;14.29;81.01
11053;BME280;55230;42.602;23.470;2022-10-24T07:29:29;94287.75;;;14.15;81.75
11053;BME280;55230;42.602;23.470;2022-10-24T07:31:55;94227.25;;;13.60;81.95
11053;BME280;55230;42.602;23.470;2022-10-24T07:34:23;94283.50;;;13.96;82.04
11053;BME280;55230;42.602;23.470;2022-10-24T07:36:50;94281.72;;;14.11;82.92
11053;BME280;55230;42.602;23.470;2022-10-24T07:39:17;94282.47;;;14.12;82.23
11053;BME280;55230;42.602;23.470;2022-10-24T07:41:45;94275.41;;;14.14;82.20
11053;BME280;55230;42.602;23.470;2022-10-24T07:44:12;93922.13;;;11.75;81.85
11053;BME280;55230;42.602;23.470;2022-10-24T07:46:39;94296.56;;;14.28;81.66
11053;BME280;55230;42.602;23.470;2022-10-24T07:49:07;94260.31;;;14.04;80.78
11053;BME280;55230;42.602;23.470;2022-10-24T07:51:34;94240.56;;;13.94;80.73
11053;BME280;55230;42.602;23.470;2022-10-24T07:54:01;94244.69;;;14.26;80.07
11053;BME280;55230;42.602;23.470;2022-10-24T07:56:27;94300.31;;;14.67;79.21
11053;BME280;55230;42.602;23.470;2022-10-24T07:58:58;94300.94;;;14.53;79.86
11053;BME280;55230;42.602;23.470;2022-10-24T08:01:26;94174.75;;;13.94;78.94
11053;BME280;55230;42.602;23.470;2022-10-24T08:03:53;94289.28;;;15.06;77.64
11053;BME280;55230;42.602;23.470;2022-10-24T08:06:23;94285.59;;;15.37;76.04
11053;BME280;55230;42.602;23.470;2022-10-24T08:08:52;94286.47;;;15.52;75.77
11053;BME280;55230;42.602;23.470;2022-10-24T08:11:20;94230.38;;;15.22;74.37
11053;BME280;55230;42.602;23.470;2022-10-24T08:13:48;94296.78;;;15.48;74.64
11053;BME280;55230;42.602;23.470;2022-10-24T08:16:18;94290.50;;;15.65;74.11
11053;BME280;55230;42.602;23.470;2022-10-24T08:18:46;94285.34;;;16.00;73.99
11053;BME280;55230;42.602;23.470;2022-10-24T08:21:14;94283.59;;;15.88;73.17
11053;BME280;55230;42.602;23.470;2022-10-24T08:23:43;94217.09;;;15.24;73.63
11053;BME280;55230;42.602;23.470;2022-10-24T08:26:12;94280.81;;;15.97;73.61
11053;BME280;55230;42.602;23.470;2022-10-24T08:28:39;94271.00;;;16.47;71.87
11053;BME280;55230;42.602;23.470;2022-10-24T08:31:09;94285.22;;;16.42;70.68
11053;BME280;55230;42.602;23.470;2022-10-24T08:33:37;94266.44;;;16.67;70.55
11053;BME280;55230;42.602;23.470;2022-10-24T08:36:10;94271.53;;;16.74;69.79
11053;BME280;55230;42.602;23.470;2022-10-24T08:38:38;94270.50;;;16.72;68.83
11053;BME280;55230;42.602;23.470;2022-10-24T08:41:05;94215.91;;;16.28;69.79
11053;BME280;55230;42.602;23.470;2022-10-24T08:43:32;94271.28;;;16.87;68.67
11053;BME280;55230;42.602;23.470;2022-10-24T08:46:04;94055.34;;;15.61;68.03
11053;BME280;55230;42.602;23.470;2022-10-24T08:48:41;94265.28;;;17.12;67.84
11053;BME280;55230;42.602;23.470;2022-10-24T08:51:20;94257.56;;;17.10;66.86
11053;BME280;55230;42.602;23.470;2022-10-24T08:53:53;94259.63;;;17.15;66.63
11053;BME280;55230;42.602;23.470;2022-10-24T08:56:22;93756.97;;;13.83;65.88
11053;BME280;55230;42.602;23.470;2022-10-24T08:58:50;94254.84;;;17.10;66.88
11053;BME280;55230;42.602;23.470;2022-10-24T09:01:27;94254.09;;;17.24;65.19
11053;BME280;55230;42.602;23.470;2022-10-24T09:03:59;94250.81;;;17.50;64.08
11053;BME280;55230;42.602;23.470;2022-10-24T09:06:30;94249.81;;;17.82;63.77
11053;BME280;55230;42.602;23.470;2022-10-24T09:08:58;94249.34;;;18.03;61.46
11053;BME280;55230;42.602;23.470;2022-10-24T09:11:30;94153.81;;;17.14;61.71
11053;BME280;55230;42.602;23.470;2022-10-24T09:14:06;94114.03;;;16.87;61.85
11053;BME280;55230;42.602;23.470;2022-10-24T09:16:39;94232.16;;;17.77;61.78
11053;BME280;55230;42.602;23.470;2022-10-24T09:19:09;94244.94;;;18.26;60.83
11053;BME280;55230;42.602;23.470;2022-10-24T09:21:39;94168.84;;;17.93;60.35
11053;BME280;55230;42.602;23.470;2022-10-24T09:24:13;94236.16;;;18.57;58.86
11053;BME280;55230;42.602;23.470;2022-10-24T09:26:43;94229.94;;;18.56;58.40
11053;BME280;55230;42.602;23.470;2022-10-24T09:29:10;94230.50;;;18.60;58.31
11053;BME280;55230;42.602;23.470;2022-10-24T09:31:37;94241.66;;;18.62;58.48
11053;BME280;55230;42.602;23.470;2022-10-24T09:34:04;93954.81;;;16.88;59.13
11053;BME280;55230;42.602;23.470;2022-10-24T09:36:32;94232.31;;;19.20;57.72
11053;BME280;55230;42.602;23.470;2022-10-24T09:39:22;94196.63;;;18.78;56.71
11053;BME280;55230;42.602;23.470;2022-10-24T09:41:50;94229.81;;;18.91;58.03
11053;BME280;55230;42.602;23.470;2022-10-24T09:44:30;94232.47;;;19.31;56.26
11053;BME280;55230;42.602;23.470;2022-10-24T09:46:58;94080.19;;;18.29;55.91
11053;BME280;55230;42.602;23.470;2022-10-24T09:49:32;94227.19;;;19.27;55.94
11053;BME280;55230;42.602;23.470;2022-10-24T09:52:04;94223.09;;;19.17;56.62
11053;BME280;55230;42.602;23.470;2022-10-24T09:54:34;94219.13;;;19.44;54.73
11053;BME280;55230;42.602;23.470;2022-10-24T09:57:04;94218.69;;;19.51;55.47
11053;BME280;55230;42.602;23.470;2022-10-24T09:59:36;94210.44;;;19.45;56.06
11053;BME280;55230;42.602;23.470;2022-10-24T10:05:17;94150.22;;;18.83;55.41
11053;BME280;55230;42.602;23.470;2022-10-24T10:07:46;94219.06;;;19.70;55.07
11053;BME280;55230;42.602;23.470;2022-10-24T10:10:29;94164.66;;;19.83;52.93
11053;BME280;55230;42.602;23.470;2022-10-24T10:13:06;93758.09;;;17.04;52.54
11053;BME280;55230;42.602;23.470;2022-10-24T10:15:44;94212.81;;;20.64;50.48
11053;BME280;55230;42.602;23.470;2022-10-24T10:18:22;94094.94;;;19.73;53.11
11053;BME280;55230;42.602;23.470;2022-10-24T10:21:02;94161.00;;;20.61;50.50
11053;BME280;55230;42.602;23.470;2022-10-24T10:23:33;94168.03;;;20.84;49.53
11053;BME280;55230;42.602;23.470;2022-10-24T10:26:06;94204.47;;;21.23;48.70
11053;BME280;55230;42.602;23.470;2022-10-24T10:28:35;94198.75;;;21.10;48.25
11053;BME280;55230;42.602;23.470;2022-10-24T10:31:02;94149.06;;;20.75;48.42
11053;BME280;55230;42.602;23.470;2022-10-24T10:33:35;94195.50;;;21.06;48.89
11053;BME280;55230;42.602;23.470;2022-10-24T10:36:12;94187.28;;;21.39;48.17
11053;BME280;55230;42.602;23.470;2022-10-24T10:38:51;94142.63;;;21.00;47.77
11053;BME280;55230;42.602;23.470;2022-10-24T10:41:39;94183.28;;;21.40;48.44
11053;BME280;55230;42.602;23.470;2022-10-24T10:44:30;94137.84;;;21.56;47.90
11053;BME280;55230;42.602;23.470;2022-10-24T10:47:07;94086.50;;;20.90;47.33
11053;BME280;55230;42.602;23.470;2022-10-24T10:49:37;94173.06;;;21.35;47.17
11053;BME280;55230;42.602;23.470;2022-10-24T10:52:06;94172.81;;;21.44;47.52
11053;BME280;55230;42.602;23.470;2022-10-24T10:54:54;94172.56;;;21.15;47.75
11053;BME280;55230;42.602;23.470;2022-10-24T10:57:30;94168.03;;;20.95;49.14
11053;BME280;55230;42.602;23.470;2022-10-24T11:00:07;94159.34;;;21.13;48.65
11053;BME280;55230;42.602;23.470;2022-10-24T11:02:54;94163.59;;;21.31;48.17
11053;BME280;55230;42.602;23.470;2022-10-24T11:05:32;94167.78;;;21.59;46.96
11053;BME280;55230;42.602;23.470;2022-10-24T11:08:09;94165.56;;;21.30;47.56
11053;BME280;55230;42.602;23.470;2022-10-24T11:10:40;94018.22;;;20.37;47.30
11053;BME280;55230;42.602;23.470;2022-10-24T11:13:14;94146.63;;;21.32;47.99
11053;BME280;55230;42.602;23.470;2022-10-24T11:15:45;94154.84;;;21.43;47.99
11053;BME280;55230;42.602;23.470;2022-10-24T11:18:18;94151.03;;;21.85;46.51
11053;BME280;55230;42.602;23.470;2022-10-24T11:20:48;94146.28;;;21.74;46.51
11053;BME280;55230;42.602;23.470;2022-10-24T11:23:22;94145.28;;;22.00;46.32
11053;BME280;55230;42.602;23.470;2022-10-24T11:25:56;94139.34;;;22.42;45.04
11053;BME280;55230;42.602;23.470;2022-10-24T11:28:28;94145.75;;;22.61;44.34
11053;BME280;55230;42.602;23.470;2022-10-24T11:30:59;93868.81;;;20.36;43.42
11053;BME280;55230;42.602;23.470;2022-10-24T11:33:30;94131.63;;;22.86;43.01
11053;BME280;55230;42.602;23.470;2022-10-24T11:36:07;94131.25;;;23.01;42.78
11053;BME280;55230;42.602;23.470;2022-10-24T11:38:41;94086.16;;;22.34;42.61
11053;BME280;55230;42.602;23.470;2022-10-24T11:44:22;94118.25;;;22.66;43.10
11053;BME280;55230;42.602;23.470;2022-10-24T11:46:58;94110.66;;;22.32;43.25
11053;BME280;55230;42.602;23.470;2022-10-24T11:49:30;94111.00;;;22.17;43.50
11053;BME280;55230;42.602;23.470;2022-10-24T11:52:03;94109.38;;;22.38;43.11
11053;BME280;55230;42.602;23.470;2022-10-24T11:54:33;94102.97;;;22.71;42.58
11053;BME280;55230;42.602;23.470;2022-10-24T11:57:11;93926.66;;;21.74;42.15
11053;BME280;55230;42.602;23.470;2022-10-24T11:59:38;94129.88;;;23.19;41.67
11053;BME280;55230;42.602;23.470;2022-10-24T12:05:28;94090.13;;;23.44;40.51
11053;BME280;55230;42.602;23.470;2022-10-24T12:08:31;94087.94;;;23.07;41.21
11053;BME280;55230;42.602;23.470;2022-10-24T12:11:18;94064.75;;;22.67;41.87
11053;BME280;55230;42.602;23.470;2022-10-24T12:14:08;93982.19;;;22.03;41.26
11053;BME280;55230;42.602;23.470;2022-10-24T12:16:53;93515.81;;;18.79;41.92
11053;BME280;55230;42.602;23.470;2022-10-24T12:19:27;94078.56;;;22.51;41.61
11053;BME280;55230;42.602;23.470;2022-10-24T12:21:56;94077.03;;;22.61;42.31
11053;BME280;55230;42.602;23.470;2022-10-24T12:24:27;94076.22;;;22.71;41.90
11053;BME280;55230;42.602;23.470;2022-10-24T12:26:57;93838.78;;;21.45;41.44
11053;BME280;55230;42.602;23.470;2022-10-24T12:29:29;94085.75;;;23.00;40.92
11053;BME280;55230;42.602;23.470;2022-10-24T12:31:58;94069.00;;;22.98;41.22
11053;BME280;55230;42.602;23.470;2022-10-24T12:34:31;94071.19;;;22.75;41.95
11053;BME280;55230;42.602;23.470;2022-10-24T12:39:52;94071.69;;;22.74;42.03
11053;BME280;55230;42.602;23.470;2022-10-24T12:43:06;94067.06;;;22.93;42.45
11053;BME280;55230;42.602;23.470;2022-10-24T12:45:35;93896.16;;;21.89;41.53
11053;BME280;55230;42.602;23.470;2022-10-24T12:48:33;94061.88;;;23.14;40.71
11053;BME280;55230;42.602;23.470;2022-10-24T12:51:24;94064.75;;;22.97;40.91
11053;BME280;55230;42.602;23.470;2022-10-24T12:54:01;94029.31;;;22.58;40.84
11053;BME280;55230;42.602;23.470;2022-10-24T12:56:29;94058.84;;;22.87;40.92
11053;BME280;55230;42.602;23.470;2022-10-24T12:58:58;94057.78;;;22.96;40.76
11053;BME280;55230;42.602;23.470;2022-10-24T13:01:30;93509.25;;;19.26;40.87
11053;BME280;55230;42.602;23.470;2022-10-24T13:07:07;94053.19;;;23.04;41.42
11053;BME280;55230;42.602;23.470;2022-10-24T13:09:44;93906.88;;;21.93;41.35
11053;BME280;55230;42.602;23.470;2022-10-24T13:12:30;94045.78;;;22.93;41.07
11053;BME280;55230;42.602;23.470;2022-10-24T13:18:06;94044.03;;;23.20;40.75
11053;BME280;55230;42.602;23.470;2022-10-24T13:20:37;94001.13;;;22.82;41.40
11053;BME280;55230;42.602;23.470;2022-10-24T13:23:13;93760.31;;;21.31;41.39
11053;BME280;55230;42.602;23.470;2022-10-24T13:25:41;94055.53;;;23.24;41.13